sensor_id;sensor_type;location;lat;lon;timestamp;temperature;humidity
21393;DHT22;10857;52.228;21.026;2023-06-04T14:33:44;21.70;55.80
21393;DHT22;10857;52.228;21.026;2023-06-04T14:36:11;21.50;55.90
21393;DHT22;10857;52.228;21.026;2023-06-04T14:41:06;21.60;55.80
21393;DHT22;10857;52.228;21.026;2023-06-04T14:43:37;21.50;55.90
21393;DHT22;10857;52.228;21.026;2023-06-04T14:46:04;21.40;55.90
21393;DHT22;10857;52.228;21.026;2023-06-04T14:48:31;21.40;55.90
21393;DHT22;10857;52.228;21.026;2023-06-04T14:50:58;21.50;55.90
21393;DHT22;10857;52.228;21.026;2023-06-04T14:53:25;21.50;55.90
21393;DHT22;10857;52.228;21.026;2023-06-04T14:55:53;21.60;55.90
21393;DHT22;10857;52.228;21.026;2023-06-04T14:58:20;21.60;55.90
21393;DHT22;10857;52.228;21.026;2023-06-04T15:00:47;21.60;55.90
21393;DHT22;10857;52.228;21.026;2023-06-04T15:03:14;21.50;55.90
21393;DHT22;10857;52.228;21.026;2023-06-04T15:05:42;21.50;55.90
21393;DHT22;10857;52.228;21.026;2023-06-04T15:08:09;21.40;55.90
21393;DHT22;10857;52.228;21.026;2023-06-04T15:10:37;21.50;55.90
21393;DHT22;10857;52.228;21.026;2023-06-04T15:13:04;21.60;55.80
21393;DHT22;10857;52.228;21.026;2023-06-04T15:15:31;21.70;55.80
21393;DHT22;10857;52.228;21.026;2023-06-04T15:17:58;21.90;55.80
21393;DHT22;10857;52.228;21.026;2023-06-04T15:20:26;21.90;55.80
21393;DHT22;10857;52.228;21.026;2023-06-04T15:22:55;21.90;55.80
21393;DHT22;10857;52.228;21.026;2023-06-04T15:25:22;21.80;55.80
21393;DHT22;10857;52.228;21.026;2023-06-04T15:27:49;21.90;55.80
21393;DHT22;10857;52.228;21.026;2023-06-04T15:30:16;22.00;55.80
21393;DHT22;10857;52.228;21.026;2023-06-04T15:32:44;22.10;55.80
21393;DHT22;10857;52.228;21.026;2023-06-04T15:35:11;22.10;55.70
21393;DHT22;10857;52.228;21.026;2023-06-04T15:37:38;22.20;55.70
21393;DHT22;10857;52.228;21.026;2023-06-04T15:40:05;22.30;55.70
21393;DHT22;10857;52.228;21.026;2023-06-04T15:42:37;22.20;55.70
21393;DHT22;10857;52.228;21.026;2023-06-04T15:45:04;22.30;55.70
21393;DHT22;10857;52.228;21.026;2023-06-04T15:47:32;22.10;55.70
21393;DHT22;10857;52.228;21.026;2023-06-04T15:49:59;21.80;55.70
21393;DHT22;10857;52.228;21.026;2023-06-04T15:52:45;22.10;55.70
21393;DHT22;10857;52.228;21.026;2023-06-04T15:55:12;22.20;55.70
21393;DHT22;10857;52.228;21.026;2023-06-04T15:57:39;22.20;55.70
21393;DHT22;10857;52.228;21.026;2023-06-04T16:00:07;22.40;55.70
21393;DHT22;10857;52.228;21.026;2023-06-04T16:02:35;22.90;55.60
21393;DHT22;10857;52.228;21.026;2023-06-04T16:05:02;22.50;55.60
21393;DHT22;10857;52.228;21.026;2023-06-04T16:07:29;22.60;55.60
21393;DHT22;10857;52.228;21.026;2023-06-04T16:09:57;22.50;55.60
21393;DHT22;10857;52.228;21.026;2023-06-04T16:12:23;22.40;55.60
21393;DHT22;10857;52.228;21.026;2023-06-04T16:14:50;22.40;55.60
21393;DHT22;10857;52.228;21.026;2023-06-04T16:17:18;22.70;55.60
21393;DHT22;10857;52.228;21.026;2023-06-04T16:19:45;22.00;55.70
21393;DHT22;10857;52.228;21.026;2023-06-04T16:22:11;22.50;55.70
21393;DHT22;10857;52.228;21.026;2023-06-04T16:24:42;23.30;55.60
21393;DHT22;10857;52.228;21.026;2023-06-04T16:27:09;23.70;55.50
21393;DHT22;10857;52.228;21.026;2023-06-04T16:29:37;24.00;55.40
21393;DHT22;10857;52.228;21.026;2023-06-04T16:32:04;24.30;55.40
21393;DHT22;10857;52.228;21.026;2023-06-04T16:34:33;24.50;55.30
21393;DHT22;10857;52.228;21.026;2023-06-04T16:37:00;23.80;55.40
21393;DHT22;10857;52.228;21.026;2023-06-04T16:39:27;24.00;55.30
21393;DHT22;10857;52.228;21.026;2023-06-04T16:41:54;23.80;55.40
21393;DHT22;10857;52.228;21.026;2023-06-04T16:44:24;24.30;55.30
21393;DHT22;10857;52.228;21.026;2023-06-04T16:46:51;24.70;55.20
21393;DHT22;10857;52.228;21.026;2023-06-04T16:49:19;23.70;55.40
21393;DHT22;10857;52.228;21.026;2023-06-04T16:51:48;24.00;55.40
21393;DHT22;10857;52.228;21.026;2023-06-04T16:54:15;24.80;55.20
21393;DHT22;10857;52.228;21.026;2023-06-04T16:56:45;25.40;46.70
21393;DHT22;10857;52.228;21.026;2023-06-04T16:59:12;25.80;46.80
21393;DHT22;10857;52.228;21.026;2023-06-04T17:01:39;26.00;46.90
21393;DHT22;10857;52.228;21.026;2023-06-04T17:04:06;26.20;46.90
21393;DHT22;10857;52.228;21.026;2023-06-04T17:06:33;26.30;47.00
21393;DHT22;10857;52.228;21.026;2023-06-04T17:09:00;26.50;47.10
21393;DHT22;10857;52.228;21.026;2023-06-04T17:11:28;26.70;47.10
21393;DHT22;10857;52.228;21.026;2023-06-04T17:13:55;26.60;47.10
21393;DHT22;10857;52.228;21.026;2023-06-04T17:16:25;26.60;47.10
21393;DHT22;10857;52.228;21.026;2023-06-04T17:18:53;26.60;47.10
21393;DHT22;10857;52.228;21.026;2023-06-04T17:21:20;26.40;47.10
21393;DHT22;10857;52.228;21.026;2023-06-04T17:23:47;26.50;47.10
21393;DHT22;10857;52.228;21.026;2023-06-04T17:26:15;26.60;47.10
21393;DHT22;10857;52.228;21.026;2023-06-04T17:28:42;26.80;47.20
21393;DHT22;10857;52.228;21.026;2023-06-04T17:31:09;26.50;47.10
21393;DHT22;10857;52.228;21.026;2023-06-04T17:33:41;26.50;47.10
21393;DHT22;10857;52.228;21.026;2023-06-04T17:36:08;26.60;47.10
21393;DHT22;10857;52.228;21.026;2023-06-04T17:38:36;26.40;47.10
21393;DHT22;10857;52.228;21.026;2023-06-04T17:41:03;26.20;47.10
21393;DHT22;10857;52.228;21.026;2023-06-04T17:43:31;26.00;47.00
21393;DHT22;10857;52.228;21.026;2023-06-04T17:45:58;26.10;47.00
21393;DHT22;10857;52.228;21.026;2023-06-04T17:48:26;26.10;47.00
21393;DHT22;10857;52.228;21.026;2023-06-04T17:50:53;26.10;47.00
21393;DHT22;10857;52.228;21.026;2023-06-04T17:53:20;26.10;47.00
21393;DHT22;10857;52.228;21.026;2023-06-04T17:55:47;26.10;47.00
21393;DHT22;10857;52.228;21.026;2023-06-04T17:58:14;26.20;47.00
21393;DHT22;10857;52.228;21.026;2023-06-04T18:00:42;26.00;47.00
21393;DHT22;10857;52.228;21.026;2023-06-04T18:03:10;25.70;46.90
21393;DHT22;10857;52.228;21.026;2023-06-04T18:05:41;25.40;46.80
21393;DHT22;10857;52.228;21.026;2023-06-04T18:08:09;25.20;46.70
21393;DHT22;10857;52.228;21.026;2023-06-04T18:10:37;25.00;53.40
21393;DHT22;10857;52.228;21.026;2023-06-04T18:13:05;24.80;55.20
21393;DHT22;10857;52.228;21.026;2023-06-04T18:15:32;24.90;55.20
21393;DHT22;10857;52.228;21.026;2023-06-04T18:17:59;24.80;55.20
21393;DHT22;10857;52.228;21.026;2023-06-04T18:20:30;24.40;55.20
21393;DHT22;10857;52.228;21.026;2023-06-04T18:22:57;24.10;55.30
21393;DHT22;10857;52.228;21.026;2023-06-04T18:25:24;24.00;55.30
21393;DHT22;10857;52.228;21.026;2023-06-04T18:27:52;23.70;55.40
21393;DHT22;10857;52.228;21.026;2023-06-04T18:30:20;23.60;55.40
21393;DHT22;10857;52.228;21.026;2023-06-04T18:32:47;23.30;55.50
21393;DHT22;10857;52.228;21.026;2023-06-04T18:35:15;23.10;55.50
21393;DHT22;10857;52.228;21.026;2023-06-04T18:37:42;23.00;55.50
21393;DHT22;10857;52.228;21.026;2023-06-04T18:40:10;22.70;55.60
21393;DHT22;10857;52.228;21.026;2023-06-04T18:42:42;22.60;55.60
21393;DHT22;10857;52.228;21.026;2023-06-04T18:45:09;22.50;55.60
21393;DHT22;10857;52.228;21.026;2023-06-04T18:47:37;22.20;55.70
21393;DHT22;10857;52.228;21.026;2023-06-04T18:50:05;22.10;55.70
21393;DHT22;10857;52.228;21.026;2023-06-04T18:52:33;22.00;55.70
21393;DHT22;10857;52.228;21.026;2023-06-04T18:55:00;21.80;55.80
21393;DHT22;10857;52.228;21.026;2023-06-04T18:57:28;21.70;55.80
21393;DHT22;10857;52.228;21.026;2023-06-04T18:59:55;21.60;55.80
21393;DHT22;10857;52.228;21.026;2023-06-04T19:02:22;21.60;55.80
21393;DHT22;10857;52.228;21.026;2023-06-04T19:04:49;21.50;55.90
21393;DHT22;10857;52.228;21.026;2023-06-04T19:07:16;21.40;55.90
21393;DHT22;10857;52.228;21.026;2023-06-04T19:09:44;21.40;55.90
21393;DHT22;10857;52.228;21.026;2023-06-04T19:12:11;21.30;55.90
21393;DHT22;10857;52.228;21.026;2023-06-04T19:14:38;21.20;55.90
21393;DHT22;10857;52.228;21.026;2023-06-04T19:17:05;21.10;55.90
21393;DHT22;10857;52.228;21.026;2023-06-04T19:19:33;21.00;56.00
21393;DHT22;10857;52.228;21.026;2023-06-04T19:22:00;21.00;56.00
21393;DHT22;10857;52.228;21.026;2023-06-04T19:24:27;21.00;56.00
21393;DHT22;10857;52.228;21.026;2023-06-04T19:26:55;20.90;56.00
21393;DHT22;10857;52.228;21.026;2023-06-04T19:29:22;20.80;56.00
21393;DHT22;10857;52.228;21.026;2023-06-04T19:31:49;20.70;56.00
21393;DHT22;10857;52.228;21.026;2023-06-04T19:34:16;20.70;56.00
21393;DHT22;10857;52.228;21.026;2023-06-04T19:36:43;20.50;56.10
21393;DHT22;10857;52.228;21.026;2023-06-04T19:39:12;20.50;56.10
21393;DHT22;10857;52.228;21.026;2023-06-04T19:41:40;20.40;56.10
21393;DHT22;10857;52.228;21.026;2023-06-04T19:44:07;20.30;56.10
21393;DHT22;10857;52.228;21.026;2023-06-04T19:46:36;20.30;56.10
21393;DHT22;10857;52.228;21.026;2023-06-04T19:49:04;20.20;56.10
21393;DHT22;10857;52.228;21.026;2023-06-04T19:51:33;20.10;56.20
21393;DHT22;10857;52.228;21.026;2023-06-04T19:54:00;20.10;56.20
21393;DHT22;10857;52.228;21.026;2023-06-04T19:56:27;20.10;56.20
21393;DHT22;10857;52.228;21.026;2023-06-04T19:58:54;20.00;56.20
21393;DHT22;10857;52.228;21.026;2023-06-04T20:01:21;19.90;56.20
21393;DHT22;10857;52.228;21.026;2023-06-04T20:03:48;19.90;56.20
21393;DHT22;10857;52.228;21.026;2023-06-04T20:06:17;19.90;56.20
21393;DHT22;10857;52.228;21.026;2023-06-04T20:08:44;19.80;56.20
21393;DHT22;10857;52.228;21.026;2023-06-04T20:11:11;19.90;56.20
21393;DHT22;10857;52.228;21.026;2023-06-04T20:13:39;19.80;56.20
21393;DHT22;10857;52.228;21.026;2023-06-04T20:16:07;19.80;56.20
21393;DHT22;10857;52.228;21.026;2023-06-04T20:18:35;19.70;56.20
21393;DHT22;10857;52.228;21.026;2023-06-04T20:21:02;19.60;56.30
21393;DHT22;10857;52.228;21.026;2023-06-04T20:23:29;19.60;56.30
21393;DHT22;10857;52.228;21.026;2023-06-04T20:25:57;19.60;56.30
21393;DHT22;10857;52.228;21.026;2023-06-04T20:28:29;19.60;56.30
21393;DHT22;10857;52.228;21.026;2023-06-04T20:30:57;19.50;56.30
21393;DHT22;10857;52.228;21.026;2023-06-04T20:33:27;19.40;56.30
21393;DHT22;10857;52.228;21.026;2023-06-04T20:35:54;19.30;56.30
21393;DHT22;10857;52.228;21.026;2023-06-04T20:38:21;19.30;56.40
21393;DHT22;10857;52.228;21.026;2023-06-04T20:40:48;19.30;56.40
21393;DHT22;10857;52.228;21.026;2023-06-04T20:43:15;19.30;56.40
21393;DHT22;10857;52.228;21.026;2023-06-04T20:45:42;19.30;56.40
21393;DHT22;10857;52.228;21.026;2023-06-04T20:48:09;19.20;56.40
21393;DHT22;10857;52.228;21.026;2023-06-04T20:50:40;19.10;56.40
21393;DHT22;10857;52.228;21.026;2023-06-04T20:53:07;19.10;56.40
21393;DHT22;10857;52.228;21.026;2023-06-04T20:55:34;19.10;56.40
21393;DHT22;10857;52.228;21.026;2023-06-04T20:58:02;19.00;56.40
21393;DHT22;10857;52.228;21.026;2023-06-04T21:00:30;19.10;56.40
21393;DHT22;10857;52.228;21.026;2023-06-04T21:02:57;19.00;56.40
21393;DHT22;10857;52.228;21.026;2023-06-04T21:05:24;19.00;56.40
21393;DHT22;10857;52.228;21.026;2023-06-04T21:07:51;19.00;56.40
21393;DHT22;10857;52.228;21.026;2023-06-04T21:10:18;19.00;56.40
21393;DHT22;10857;52.228;21.026;2023-06-04T21:12:46;19.00;56.40
21393;DHT22;10857;52.228;21.026;2023-06-04T21:15:16;18.90;56.50
21393;DHT22;10857;52.228;21.026;2023-06-04T21:17:43;18.80;56.50
21393;DHT22;10857;52.228;21.026;2023-06-04T21:20:10;18.80;56.50
21393;DHT22;10857;52.228;21.026;2023-06-04T21:22:37;18.70;56.50
21393;DHT22;10857;52.228;21.026;2023-06-04T21:25:05;18.70;56.50
21393;DHT22;10857;52.228;21.026;2023-06-04T21:27:32;18.60;56.50
21393;DHT22;10857;52.228;21.026;2023-06-04T21:29:59;18.60;56.50
21393;DHT22;10857;52.228;21.026;2023-06-04T21:32:29;18.60;56.50
21393;DHT22;10857;52.228;21.026;2023-06-04T21:34:56;18.60;56.50
21393;DHT22;10857;52.228;21.026;2023-06-04T21:37:24;18.60;56.50
21393;DHT22;10857;52.228;21.026;2023-06-04T21:39:51;18.60;56.50
21393;DHT22;10857;52.228;21.026;2023-06-04T21:42:26;18.50;56.50
21393;DHT22;10857;52.228;21.026;2023-06-04T21:44:54;18.50;56.50
21393;DHT22;10857;52.228;21.026;2023-06-04T21:47:24;18.50;56.50
21393;DHT22;10857;52.228;21.026;2023-06-04T21:49:51;18.40;56.60
21393;DHT22;10857;52.228;21.026;2023-06-04T21:52:18;18.40;56.60
21393;DHT22;10857;52.228;21.026;2023-06-04T21:54:52;18.40;56.60
21393;DHT22;10857;52.228;21.026;2023-06-04T21:57:19;18.20;56.60
21393;DHT22;10857;52.228;21.026;2023-06-04T21:59:46;18.20;56.60
21393;DHT22;10857;52.228;21.026;2023-06-04T22:02:13;18.20;56.60
21393;DHT22;10857;52.228;21.026;2023-06-04T22:04:42;18.20;56.60
21393;DHT22;10857;52.228;21.026;2023-06-04T22:07:10;18.20;56.60
21393;DHT22;10857;52.228;21.026;2023-06-04T22:09:37;18.20;56.60
21393;DHT22;10857;52.228;21.026;2023-06-04T22:12:04;18.20;56.60
21393;DHT22;10857;52.228;21.026;2023-06-04T22:14:31;18.20;56.60
21393;DHT22;10857;52.228;21.026;2023-06-04T22:16:59;18.20;56.60
21393;DHT22;10857;52.228;21.026;2023-06-04T22:19:26;18.20;56.60
21393;DHT22;10857;52.228;21.026;2023-06-04T22:21:53;18.20;56.60
21393;DHT22;10857;52.228;21.026;2023-06-04T22:24:20;18.10;56.60
21393;DHT22;10857;52.228;21.026;2023-06-04T22:26:47;18.00;56.60
21393;DHT22;10857;52.228;21.026;2023-06-04T22:29:14;18.00;56.70
21393;DHT22;10857;52.228;21.026;2023-06-04T22:31:44;17.90;56.70
21393;DHT22;10857;52.228;21.026;2023-06-04T22:34:13;18.00;56.70
21393;DHT22;10857;52.228;21.026;2023-06-04T22:39:09;17.90;56.70
21393;DHT22;10857;52.228;21.026;2023-06-04T22:41:37;17.90;56.70
21393;DHT22;10857;52.228;21.026;2023-06-04T22:53:59;17.80;56.70
21393;DHT22;10857;52.228;21.026;2023-06-04T22:56:26;17.70;56.80
21393;DHT22;10857;52.228;21.026;2023-06-04T22:58:53;17.60;56.80
